Time;durP1;ratioP1;P1;durP2;ratioP2;P2;SDS_P1;SDS_P2;PMS_P1;PMS_P2;Temp;Humidity;BMP_temperature;BMP_pressure;BME280_temperature;BME280_humidity;BME280_pressure;Samples;Min_cycle;Max_cycle;Signal;HPM_P1;HPM_P2
2022/11/30 00:00:47;;;;;;;0.10;0.10;;;;;;;6.86;100.00;102192.28;4975042;28;20370;-79
2022/11/30 00:03:12;;;;;;;0.10;0.10;;;;;;;6.85;100.00;102191.38;4958586;28;20026;-79
2022/11/30 00:05:37;;;;;;;0.10;0.10;;;;;;;6.88;100.00;102190.41;4966649;28;20033;-80
2022/11/30 00:08:03;;;;;;;0.20;0.20;;;;;;;6.92;100.00;102197.34;4954879;28;20035;-79
2022/11/30 00:10:28;;;;;;;0.17;0.17;;;;;;;6.95;100.00;102201.72;4958000;28;20059;-79
2022/11/30 00:12:55;;;;;;;0.10;0.10;;;;;;;6.96;100.00;102209.66;4970893;28;20484;-79
2022/11/30 00:15:20;;;;;;;0.10;0.10;;;;;;;6.81;100.00;102180.91;4963816;28;20031;-79
2022/11/30 00:17:46;;;;;;;0.17;0.17;;;;;;;6.82;100.00;102177.31;4966296;28;20085;-78
2022/11/30 00:20:13;;;;;;;0.20;0.20;;;;;;;6.85;100.00;102186.06;4961777;28;20062;-77
2022/11/30 00:22:39;;;;;;;0.20;0.20;;;;;;;6.92;100.00;102200.00;4946569;28;20355;-79
2022/11/30 00:25:04;;;;;;;0.10;0.10;;;;;;;6.75;100.00;102182.88;4949647;28;20757;-79
2022/11/30 00:27:31;;;;;;;0.10;0.10;;;;;;;6.64;100.00;102176.25;4949241;28;20508;-79
2022/11/30 00:29:57;;;;;;;0.20;0.20;;;;;;;6.86;100.00;102208.31;4930269;28;20525;-79
2022/11/30 00:32:23;;;;;;;0.10;0.10;;;;;;;6.81;100.00;102183.56;4964176;28;20478;-79
2022/11/30 00:34:49;;;;;;;0.17;0.17;;;;;;;6.87;100.00;102189.53;4930623;28;20082;-79
2022/11/30 00:37:14;;;;;;;0.10;0.10;;;;;;;7.02;100.00;102200.50;4942220;28;20467;-79
2022/11/30 00:39:39;;;;;;;0.10;0.10;;;;;;;6.99;100.00;102196.16;4949387;28;20066;-79
2022/11/30 00:42:05;;;;;;;0.10;0.10;;;;;;;7.04;100.00;102206.66;4946269;28;20368;-80
2022/11/30 00:44:30;;;;;;;0.20;0.20;;;;;;;6.86;100.00;102185.13;4945658;28;20105;-79
2022/11/30 00:46:55;;;;;;;0.10;0.10;;;;;;;6.97;100.00;102192.69;4947032;28;20070;-79
2022/11/30 00:49:21;;;;;;;0.10;0.10;;;;;;;6.94;100.00;102189.28;4953016;28;20035;-79
2022/11/30 00:51:46;;;;;;;0.20;0.20;;;;;;;6.93;100.00;102184.88;4960845;28;20043;-79
2022/11/30 00:54:11;;;;;;;0.10;0.10;;;;;;;6.99;100.00;102198.84;4946341;28;20396;-79
2022/11/30 00:56:37;;;;;;;0.20;0.20;;;;;;;6.92;100.00;102196.50;4976365;28;20421;-80
2022/11/30 00:59:02;;;;;;;0.10;0.10;;;;;;;6.95;100.00;102196.38;4955386;28;20477;-79
2022/11/30 01:01:27;;;;;;;0.10;0.10;;;;;;;6.92;100.00;102192.00;4967681;28;20541;-79
2022/11/30 01:03:52;;;;;;;0.20;0.20;;;;;;;6.90;100.00;102186.75;4954771;28;20156;-79
2022/11/30 01:06:18;;;;;;;0.20;0.20;;;;;;;7.00;100.00;102199.72;4967716;28;20062;-79
2022/11/30 01:08:43;;;;;;;0.10;0.10;;;;;;;6.94;100.00;102194.63;4976827;28;20418;-80
2022/11/30 01:11:17;;;;;;;0.10;0.10;;;;;;;6.84;100.00;102196.81;4951749;28;20469;-79
2022/11/30 01:13:42;;;;;;;0.10;0.10;;;;;;;6.82;100.00;102199.53;4939532;28;20031;-79
2022/11/30 01:16:10;;;;;;;0.15;0.15;;;;;;;6.90;100.00;102205.44;4936106;28;20426;-79
2022/11/30 01:18:37;;;;;;;0.10;0.10;;;;;;;6.97;100.00;102215.88;4948636;28;20485;-80
2022/11/30 01:21:12;;;;;;;0.10;0.10;;;;;;;6.94;100.00;102216.00;4945112;28;20525;-80
2022/11/30 01:23:37;;;;;;;0.10;0.10;;;;;;;6.80;100.00;102211.22;4929318;28;20030;-79
2022/11/30 01:26:02;;;;;;;0.10;0.10;;;;;;;6.79;100.00;102218.31;4951613;28;20112;-80
2022/11/30 01:28:28;;;;;;;0.20;0.20;;;;;;;6.80;100.00;102214.72;4966610;28;20031;-79
2022/11/30 01:31:04;;;;;;;0.10;0.10;;;;;;;6.73;100.00;102214.13;4956336;28;20034;-79
2022/11/30 01:33:30;;;;;;;0.20;0.20;;;;;;;6.64;100.00;102202.94;4949610;28;20054;-79
2022/11/30 01:35:59;;;;;;;0.10;0.10;;;;;;;6.74;100.00;102225.69;4950395;28;20065;-80
2022/11/30 01:38:25;;;;;;;0.10;0.10;;;;;;;6.77;100.00;102225.53;4932844;29;20497;-80
2022/11/30 01:40:50;;;;;;;0.10;0.10;;;;;;;6.60;100.00;102213.72;4944891;28;20027;-80
2022/11/30 01:43:17;;;;;;;0.10;0.10;;;;;;;6.54;100.00;102216.63;4940309;28;20360;-80
2022/11/30 01:45:43;;;;;;;0.13;0.13;;;;;;;6.48;100.00;102208.00;4949338;28;20031;-79
2022/11/30 01:48:08;;;;;;;0.10;0.10;;;;;;;6.47;100.00;102209.81;4938819;28;20131;-80
2022/11/30 01:50:34;;;;;;;0.13;0.13;;;;;;;6.54;100.00;102229.97;4967591;28;20528;-79
2022/11/30 01:53:00;;;;;;;0.20;0.20;;;;;;;6.49;100.00;102218.59;4962315;28;20043;-79
2022/11/30 01:55:29;;;;;;;0.10;0.10;;;;;;;6.60;100.00;102234.22;4956291;28;20441;-79
2022/11/30 01:58:05;;;;;;;0.10;0.10;;;;;;;6.40;100.00;102201.16;4933896;28;20285;-79
2022/11/30 02:00:30;;;;;;;0.10;0.10;;;;;;;6.55;100.00;102229.03;4953474;28;20027;-80
2022/11/30 02:02:59;;;;;;;0.10;0.10;;;;;;;6.56;100.00;102235.25;4952569;28;20050;-80
2022/11/30 02:05:25;;;;;;;0.10;0.10;;;;;;;6.55;100.00;102250.38;4974517;28;20034;-80
2022/11/30 02:07:50;;;;;;;0.10;0.10;;;;;;;6.46;100.00;102237.41;4933883;28;20031;-80
2022/11/30 02:10:18;;;;;;;0.20;0.20;;;;;;;6.48;100.00;102237.34;4959966;28;20480;-80
2022/11/30 02:13:05;;;;;;;0.10;0.10;;;;;;;6.49;100.00;102252.44;4955251;28;20034;-80
2022/11/30 02:15:48;;;;;;;0.10;0.10;;;;;;;6.44;100.00;102248.13;4967733;28;20035;-80
2022/11/30 02:18:21;;;;;;;0.10;0.10;;;;;;;6.30;100.00;102229.13;4949077;28;20537;-80
2022/11/30 02:21:09;;;;;;;0.10;0.10;;;;;;;6.44;100.00;102248.13;4938033;28;20031;-79
2022/11/30 02:24:06;;;;;;;0.10;0.10;;;;;;;6.42;100.00;102246.47;4952576;28;20418;-79
2022/11/30 02:27:03;;;;;;;0.10;0.10;;;;;;;6.47;100.00;102243.59;4948885;28;20045;-79
2022/11/30 02:29:32;;;;;;;0.10;0.10;;;;;;;6.48;100.00;102251.56;4969650;28;20042;-79
2022/11/30 02:32:08;;;;;;;0.20;0.20;;;;;;;6.49;100.00;102244.44;4951596;28;20030;-80
2022/11/30 02:34:35;;;;;;;0.10;0.10;;;;;;;6.46;100.00;102240.09;4950574;28;20034;-79
2022/11/30 02:37:02;;;;;;;0.10;0.10;;;;;;;6.49;100.00;102245.28;4950112;28;20040;-79
2022/11/30 02:39:27;;;;;;;0.10;0.10;;;;;;;6.42;100.00;102235.78;4949069;28;20031;-80
2022/11/30 02:41:53;;;;;;;0.10;0.10;;;;;;;6.31;100.00;102225.53;4965250;28;20030;-79
2022/11/30 02:44:19;;;;;;;0.10;0.10;;;;;;;6.32;100.00;102232.59;4950686;28;20031;-80
2022/11/30 02:47:06;;;;;;;0.10;0.10;;;;;;;6.39;100.00;102246.56;4947230;28;20041;-79
2022/11/30 02:49:49;;;;;;;0.10;0.10;;;;;;;6.36;100.00;102249.34;4930862;28;20030;-80
2022/11/30 02:52:15;;;;;;;0.13;0.13;;;;;;;6.38;100.00;102252.84;4929499;28;20030;-80
2022/11/30 02:54:41;;;;;;;0.10;0.10;;;;;;;6.27;100.00;102231.91;4936753;28;20027;-79
2022/11/30 02:57:06;;;;;;;0.10;0.10;;;;;;;6.34;100.00;102252.09;4941460;28;20031;-80
2022/11/30 02:59:32;;;;;;;0.10;0.10;;;;;;;6.24;100.00;102240.00;4953083;28;20506;-80
2022/11/30 03:01:57;;;;;;;0.10;0.10;;;;;;;6.26;100.00;102241.69;4930387;28;20127;-80
2022/11/30 03:04:22;;;;;;;0.10;0.10;;;;;;;6.20;100.00;102241.94;4960306;28;20046;-79
2022/11/30 03:06:48;;;;;;;0.10;0.10;;;;;;;6.15;100.00;102241.22;4936090;28;20050;-80
2022/11/30 03:09:13;;;;;;;0.10;0.10;;;;;;;6.09;100.00;102233.44;4936988;28;20477;-80
2022/11/30 03:11:39;;;;;;;0.10;0.10;;;;;;;6.13;100.00;102241.25;4939725;28;20502;-80
2022/11/30 03:14:04;;;;;;;0.10;0.10;;;;;;;6.15;100.00;102238.56;4929839;28;20512;-79
2022/11/30 03:16:29;;;;;;;0.13;0.13;;;;;;;6.21;100.00;102243.69;4939547;28;21064;-80
2022/11/30 03:18:56;;;;;;;0.10;0.10;;;;;;;6.15;100.00;102244.75;4941391;28;20485;-80
2022/11/30 03:21:22;;;;;;;0.10;0.10;;;;;;;6.22;100.00;102258.75;4950317;28;20034;-80
2022/11/30 03:23:47;;;;;;;0.20;0.20;;;;;;;6.10;100.00;102241.38;4946555;28;20377;-80
2022/11/30 03:26:12;;;;;;;0.10;0.10;;;;;;;6.08;100.00;102251.25;4966676;28;20482;-79
2022/11/30 03:28:37;;;;;;;0.10;0.10;;;;;;;6.14;100.00;102255.50;4948184;28;20062;-80
2022/11/30 03:31:03;;;;;;;0.10;0.10;;;;;;;6.02;100.00;102251.47;4958192;28;20053;-80
2022/11/30 03:33:29;;;;;;;0.10;0.10;;;;;;;6.00;100.00;102243.50;4931628;28;20038;-79
2022/11/30 03:36:05;;;;;;;0.10;0.10;;;;;;;6.03;100.00;102257.66;4965010;28;20030;-80
2022/11/30 03:38:31;;;;;;;0.10;0.10;;;;;;;6.00;100.00;102258.66;4935504;28;20031;-80
2022/11/30 03:41:08;;;;;;;0.10;0.10;;;;;;;5.96;100.00;102263.16;4950456;28;20650;-80
2022/11/30 03:43:34;;;;;;;0.10;0.10;;;;;;;5.98;100.00;102257.81;4945625;28;20034;-79
2022/11/30 03:45:59;;;;;;;0.10;0.10;;;;;;;5.94;100.00;102256.16;4960187;28;20035;-80
2022/11/30 03:48:25;;;;;;;0.10;0.10;;;;;;;5.93;100.00;102254.41;4934756;28;20113;-80
2022/11/30 03:50:50;;;;;;;0.10;0.10;;;;;;;5.94;100.00;102261.50;4943465;28;20063;-79
2022/11/30 03:53:21;;;;;;;0.10;0.10;;;;;;;5.80;100.00;102251.31;4946120;28;20030;-80
2022/11/30 03:55:52;;;;;;;0.10;0.10;;;;;;;5.94;100.00;102269.50;4965523;28;20409;-80
2022/11/30 03:58:17;;;;;;;0.10;0.10;;;;;;;5.80;100.00;102256.66;4961507;28;20081;-79
2022/11/30 04:00:42;;;;;;;0.13;0.13;;;;;;;5.70;100.00;102242.78;4935843;28;20396;-79
2022/11/30 04:03:07;;;;;;;0.10;0.10;;;;;;;5.86;100.00;102267.09;4926537;28;20466;-78
2022/11/30 04:05:33;;;;;;;0.10;0.10;;;;;;;5.85;100.00;102268.03;4941278;28;20381;-79
2022/11/30 04:07:58;;;;;;;0.10;0.10;;;;;;;5.83;100.00;102275.22;4935576;28;20059;-79
2022/11/30 04:10:23;;;;;;;0.10;0.10;;;;;;;5.76;100.00;102263.00;4921633;28;20086;-80
2022/11/30 04:12:49;;;;;;;0.10;0.10;;;;;;;5.78;100.00;102271.81;4938063;28;20031;-80
2022/11/30 04:15:14;;;;;;;0.10;0.10;;;;;;;5.62;100.00;102244.81;4940763;28;20440;-80
2022/11/30 04:17:39;;;;;;;0.10;0.10;;;;;;;5.70;100.00;102258.78;4922851;28;20577;-79
2022/11/30 04:20:05;;;;;;;0.10;0.10;;;;;;;5.67;100.00;102253.53;4926429;28;20045;-79
2022/11/30 04:22:32;;;;;;;0.10;0.10;;;;;;;5.71;100.00;102258.69;4939452;28;20058;-79
2022/11/30 04:24:57;;;;;;;0.10;0.10;;;;;;;5.67;100.00;102257.09;4942932;28;20073;-79
2022/11/30 04:27:23;;;;;;;0.10;0.10;;;;;;;5.69;100.00;102263.22;4939214;28;20034;-80
2022/11/30 04:29:48;;;;;;;0.10;0.10;;;;;;;5.65;100.00;102258.94;4960832;28;20150;-79
2022/11/30 04:32:14;;;;;;;0.20;0.20;;;;;;;5.64;100.00;102254.53;4943192;28;20041;-79
2022/11/30 04:34:39;;;;;;;0.10;0.10;;;;;;;5.67;100.00;102265.09;4942536;28;20062;-79
2022/11/30 04:37:04;;;;;;;0.10;0.10;;;;;;;5.65;100.00;102253.59;4961146;28;20030;-79
2022/11/30 04:39:32;;;;;;;0.10;0.10;;;;;;;5.58;100.00;102233.41;4936736;28;20501;-79
2022/11/30 04:41:57;;;;;;;0.10;0.10;;;;;;;5.76;100.00;102265.66;4921822;28;20110;-80
2022/11/30 04:44:23;;;;;;;0.10;0.10;;;;;;;5.77;100.00;102262.09;4954022;28;20392;-79
2022/11/30 04:46:48;;;;;;;0.10;0.10;;;;;;;5.69;100.00;102249.88;4923237;28;20600;-80
2022/11/30 04:49:13;;;;;;;0.10;0.10;;;;;;;5.71;100.00;102247.19;4955450;28;20039;-79
2022/11/30 04:51:38;;;;;;;0.10;0.10;;;;;;;5.83;100.00;102268.06;4937010;28;20035;-79
2022/11/30 04:54:04;;;;;;;0.10;0.10;;;;;;;5.66;100.00;102241.13;4942049;28;20399;-80
2022/11/30 04:56:29;;;;;;;0.10;0.10;;;;;;;5.73;100.00;102255.13;4923776;28;20157;-79
2022/11/30 04:58:54;;;;;;;0.10;0.10;;;;;;;5.80;100.00;102261.97;4938327;28;20078;-80
2022/11/30 05:01:20;;;;;;;0.10;0.10;;;;;;;5.62;100.00;102250.16;4939907;28;20038;-80
2022/11/30 05:03:45;;;;;;;0.10;0.10;;;;;;;5.60;100.00;102247.56;4947649;28;20035;-80
2022/11/30 05:06:10;;;;;;;0.10;0.10;;;;;;;5.66;100.00;102268.69;4963559;28;20082;-80
2022/11/30 05:08:36;;;;;;;0.10;0.10;;;;;;;5.65;100.00;102274.03;4941982;28;20058;-79
2022/11/30 05:11:01;;;;;;;0.10;0.10;;;;;;;5.56;100.00;102269.91;4921680;28;20035;-79
2022/11/30 05:13:26;;;;;;;0.30;0.30;;;;;;;5.46;100.00;102258.69;4933358;28;20382;-80
2022/11/30 05:15:54;;;;;;;0.70;0.70;;;;;;;5.36;100.00;102266.13;4937704;28;20112;-79
2022/11/30 05:18:20;;;;;;;0.13;0.13;;;;;;;5.40;100.00;102275.75;4948192;28;20121;-79
2022/11/30 05:20:47;;;;;;;0.10;0.10;;;;;;;5.23;100.00;102262.09;4951474;28;20532;-80
2022/11/30 05:23:12;;;;;;;0.10;0.10;;;;;;;5.12;100.00;102256.25;4937420;28;20126;-79
2022/11/30 05:25:37;;;;;;;0.10;0.10;;;;;;;5.06;100.00;102265.28;4956575;28;20027;-79
2022/11/30 05:28:03;;;;;;;0.10;0.10;;;;;;;5.01;100.00;102273.44;4939942;28;20034;-80
2022/11/30 05:30:28;;;;;;;0.60;0.60;;;;;;;5.00;100.00;102278.81;4941372;28;20082;-79
2022/11/30 05:32:53;;;;;;;1.13;1.13;;;;;;;4.78;100.00;102266.16;4940823;28;20038;-80
2022/11/30 05:35:19;;;;;;;1.00;1.00;;;;;;;4.65;100.00;102268.31;4925012;28;20041;-79
2022/11/30 05:37:44;;;;;;;0.90;0.90;;;;;;;4.49;100.00;102263.47;4942169;28;20046;-79
2022/11/30 05:40:10;;;;;;;0.80;0.80;;;;;;;4.42;100.00;102274.34;4940332;28;20039;-79
2022/11/30 05:42:35;;;;;;;0.90;0.90;;;;;;;4.23;100.00;102266.88;4940529;28;20058;-79
2022/11/30 05:45:00;;;;;;;0.85;0.85;;;;;;;4.21;100.00;102279.34;4940692;28;20158;-79
2022/11/30 05:47:26;;;;;;;0.70;0.70;;;;;;;4.21;100.00;102282.00;4944382;28;20056;-80
2022/11/30 05:49:52;;;;;;;0.70;0.70;;;;;;;4.14;100.00;102277.75;4946001;28;20413;-79
2022/11/30 05:52:17;;;;;;;0.40;0.40;;;;;;;4.15;100.00;102280.38;4942353;28;20149;-79
2022/11/30 05:54:43;;;;;;;0.70;0.70;;;;;;;4.18;100.00;102290.91;4945271;28;20125;-79
2022/11/30 05:57:08;;;;;;;0.40;0.40;;;;;;;4.15;100.00;102298.97;4946968;28;20118;-80
2022/11/30 05:59:33;;;;;;;0.40;0.40;;;;;;;4.01;100.00;102278.09;4945428;28;20139;-79
2022/11/30 06:02:00;;;;;;;0.40;0.40;;;;;;;3.94;100.00;102275.66;4947717;28;20023;-79
2022/11/30 06:04:25;;;;;;;0.63;0.63;;;;;;;3.93;100.00;102271.25;4943985;28;20035;-79
2022/11/30 06:06:54;;;;;;;0.40;0.40;;;;;;;3.91;100.00;102279.28;4947044;28;20105;-79
2022/11/30 06:09:19;;;;;;;0.40;0.40;;;;;;;3.95;100.00;102282.69;4957634;28;20077;-79
2022/11/30 06:11:44;;;;;;;1.33;1.23;;;;;;;3.92;100.00;102285.44;4943917;28;20038;-79
2022/11/30 06:14:10;;;;;;;0.22;0.22;;;;;;;3.70;100.00;102284.25;4945549;28;20035;-79
2022/11/30 06:16:38;;;;;;;0.40;0.40;;;;;;;3.59;100.00;102292.44;4943403;28;20031;-79
2022/11/30 06:19:03;;;;;;;0.20;0.20;;;;;;;3.65;100.00;102309.16;4948137;28;20540;-79
2022/11/30 06:21:28;;;;;;;0.75;0.75;;;;;;;3.48;100.00;102291.88;4943192;28;20031;-79
2022/11/30 06:23:54;;;;;;;0.68;0.68;;;;;;;3.30;100.00;102278.13;4942644;28;20015;-79
2022/11/30 06:26:19;;;;;;;0.40;0.40;;;;;;;3.29;100.00;102289.66;4960116;28;20058;-79
2022/11/30 06:28:44;;;;;;;0.50;0.50;;;;;;;3.40;100.00;102320.38;4941861;28;20031;-79
2022/11/30 06:31:10;;;;;;;0.30;0.30;;;;;;;3.30;100.00;102301.16;4945638;28;20039;-79
2022/11/30 06:33:35;;;;;;;0.47;0.47;;;;;;;3.27;100.00;102315.38;4946648;28;20466;-79
2022/11/30 06:36:02;;;;;;;0.45;0.45;;;;;;;3.30;100.00;102319.72;4943065;28;20137;-79
2022/11/30 06:38:27;;;;;;;0.20;0.20;;;;;;;3.12;100.00;102284.75;4924520;28;20035;-79
2022/11/30 06:40:53;;;;;;;0.40;0.40;;;;;;;3.14;100.00;102304.16;4950250;28;20085;-79
2022/11/30 06:43:18;;;;;;;0.38;0.38;;;;;;;3.30;100.00;102322.38;4929819;28;20031;-79
2022/11/30 06:45:45;;;;;;;0.38;0.38;;;;;;;3.17;100.00;102308.53;4948872;28;20062;-79
2022/11/30 06:48:11;;;;;;;0.17;0.17;;;;;;;3.13;100.00;102306.84;4943277;28;20517;-79
2022/11/30 06:50:37;;;;;;;0.20;0.20;;;;;;;3.27;100.00;102330.41;4941991;28;20412;-80
2022/11/30 06:53:02;;;;;;;0.20;0.20;;;;;;;3.08;100.00;102314.91;4938235;28;20033;-79
2022/11/30 06:55:31;;;;;;;0.22;0.22;;;;;;;3.05;100.00;102330.91;4946048;28;20062;-79
2022/11/30 06:58:06;;;;;;;0.20;0.20;;;;;;;2.87;100.00;102316.25;4956475;28;20041;-79
2022/11/30 07:00:32;;;;;;;0.30;0.30;;;;;;;3.00;100.00;102346.06;4939510;28;20101;-79
2022/11/30 07:02:57;;;;;;;0.20;0.20;;;;;;;2.87;100.00;102326.00;4944805;28;20098;-80
2022/11/30 07:05:23;;;;;;;0.17;0.17;;;;;;;2.77;100.00;102317.38;4939710;28;20529;-79
2022/11/30 07:07:48;;;;;;;0.15;0.15;;;;;;;2.82;100.00;102326.09;4937967;28;20470;-79
2022/11/30 07:10:14;;;;;;;0.20;0.20;;;;;;;2.95;100.00;102342.63;4939776;28;20433;-79
2022/11/30 07:12:39;;;;;;;0.20;0.20;;;;;;;2.90;100.00;102341.88;4916340;28;20921;-79
2022/11/30 07:15:05;;;;;;;0.30;0.30;;;;;;;2.85;100.00;102334.88;4939527;28;20022;-79
2022/11/30 07:17:30;;;;;;;0.10;0.10;;;;;;;2.79;100.00;102329.69;4951636;28;20038;-79
2022/11/30 07:19:55;;;;;;;0.20;0.20;;;;;;;2.91;100.00;102360.41;4939383;28;20496;-79
2022/11/30 07:22:20;;;;;;;0.20;0.20;;;;;;;2.59;100.00;102315.97;4933162;28;20161;-79
2022/11/30 07:27:30;;;;;;;0.35;0.35;;;;;;;2.65;100.00;102358.31;4950889;28;20101;-80
2022/11/30 07:29:55;;;;;;;0.25;0.25;;;;;;;2.67;100.00;102364.41;4934537;28;20043;-79
2022/11/30 07:32:20;;;;;;;0.20;0.20;;;;;;;2.66;100.00;102367.97;4931590;28;20228;-80
2022/11/30 07:34:46;;;;;;;0.10;0.10;;;;;;;2.67;100.00;102373.25;4935421;28;20412;-80
2022/11/30 07:37:11;;;;;;;0.10;0.10;;;;;;;2.72;100.00;102385.56;4934203;28;20476;-79
2022/11/30 07:39:37;;;;;;;0.10;0.10;;;;;;;2.60;100.00;102361.03;4937685;28;20412;-78
2022/11/30 07:42:02;;;;;;;0.20;0.20;;;;;;;2.68;100.00;102376.78;4938069;28;20446;-79
2022/11/30 07:44:27;;;;;;;0.10;0.10;;;;;;;2.72;100.00;102388.22;4939708;28;20906;-79
2022/11/30 07:46:53;;;;;;;0.10;0.10;;;;;;;2.56;100.00;102361.97;4935288;28;20447;-76
2022/11/30 07:49:18;;;;;;;0.10;0.10;;;;;;;2.73;100.00;102384.66;4959094;28;20463;-77
2022/11/30 07:51:44;;;;;;;0.20;0.20;;;;;;;2.75;100.00;102386.38;4938219;28;20034;-78
2022/11/30 07:54:09;;;;;;;0.30;0.30;;;;;;;2.68;100.00;102380.31;4956768;28;20029;-76
2022/11/30 07:56:34;;;;;;;0.17;0.17;;;;;;;2.63;100.00;102371.56;4962431;28;20034;-77
2022/11/30 07:59:01;;;;;;;0.15;0.15;;;;;;;2.61;100.00;102364.56;4944783;28;20042;-78
2022/11/30 08:01:29;;;;;;;0.20;0.20;;;;;;;2.67;100.00;102377.69;4945151;28;20030;-78
2022/11/30 08:03:54;;;;;;;0.10;0.10;;;;;;;2.86;100.00;102394.09;4952394;28;20034;-77
2022/11/30 08:06:22;;;;;;;0.43;0.43;;;;;;;2.96;100.00;102400.09;4937523;28;20502;-78
2022/11/30 08:08:49;;;;;;;0.20;0.20;;;;;;;2.98;100.00;102395.63;4957840;28;20461;-78
2022/11/30 08:11:17;;;;;;;0.20;0.20;;;;;;;2.96;100.00;102373.56;4941432;28;20053;-78
2022/11/30 08:13:43;;;;;;;0.30;0.30;;;;;;;3.25;100.00;102404.78;4935350;28;20035;-78
2022/11/30 08:16:11;;;;;;;0.20;0.20;;;;;;;3.25;100.00;102404.78;4922875;28;20045;-78
2022/11/30 08:18:37;;;;;;;0.20;0.20;;;;;;;3.21;100.00;102386.28;4939272;28;20500;-78
2022/11/30 08:21:03;;;;;;;0.10;0.10;;;;;;;3.38;100.00;102408.06;4927080;28;20030;-78
2022/11/30 08:23:35;;;;;;;0.20;0.20;;;;;;;3.35;100.00;102393.94;4937580;28;20030;-77
2022/11/30 08:26:06;;;;;;;0.20;0.20;;;;;;;3.44;100.00;102420.31;4936003;28;20114;-78
2022/11/30 08:28:34;;;;;;;0.20;0.20;;;;;;;3.33;100.00;102399.31;4935143;28;20481;-78
2022/11/30 08:31:02;;;;;;;0.25;0.25;;;;;;;3.52;100.00;102423.66;4938522;28;20137;-78
2022/11/30 08:33:27;;;;;;;0.20;0.20;;;;;;;3.42;100.00;102412.38;4954224;28;20035;-78
2022/11/30 08:35:52;;;;;;;0.30;0.30;;;;;;;3.54;100.00;102427.16;4951233;28;20034;-78
2022/11/30 08:38:18;;;;;;;0.32;0.32;;;;;;;3.54;100.00;102427.16;4951097;28;20035;-77
2022/11/30 08:40:43;;;;;;;0.20;0.20;;;;;;;3.56;100.00;102403.22;4954488;28;20073;-78
2022/11/30 08:43:08;;;;;;;0.25;0.25;;;;;;;3.63;100.00;102409.25;4932348;28;20170;-77
2022/11/30 08:45:34;;;;;;;0.40;0.40;;;;;;;3.70;100.00;102424.16;4936661;28;20030;-74
2022/11/30 08:47:59;;;;;;;0.30;0.30;;;;;;;3.72;100.00;102423.19;4944031;28;20509;-78
2022/11/30 08:50:24;;;;;;;0.30;0.30;;;;;;;3.77;100.00;102419.56;4922745;28;22136;-78
2022/11/30 08:52:53;;;;;;;0.35;0.35;;;;;;;3.63;100.00;102394.22;4910214;28;20039;-74
2022/11/30 08:55:18;;;;;;;0.38;0.38;;;;;;;3.90;100.00;102427.19;4936296;28;20513;-77
2022/11/30 08:57:43;;;;;;;0.30;0.30;;;;;;;3.93;100.00;102412.97;4940334;28;20039;-77
2022/11/30 09:00:09;;;;;;;0.30;0.30;;;;;;;3.98;100.00;102411.06;4925707;28;20042;-78
2022/11/30 09:02:35;;;;;;;0.30;0.30;;;;;;;4.21;100.00;102436.22;4937801;28;20031;-77
2022/11/30 09:05:01;;;;;;;0.32;0.32;;;;;;;4.20;100.00;102415.84;4956507;28;20050;-77
2022/11/30 09:07:26;;;;;;;0.25;0.25;;;;;;;4.34;100.00;102413.69;4956579;28;20119;-78
2022/11/30 09:09:51;;;;;;;0.50;0.50;;;;;;;4.62;100.00;102441.38;4951176;28;20031;-78
2022/11/30 09:12:17;;;;;;;0.32;0.32;;;;;;;4.73;100.00;102439.25;4953973;28;20042;-77
2022/11/30 09:14:44;;;;;;;0.20;0.20;;;;;;;4.71;100.00;102433.09;4943003;28;20194;-78
2022/11/30 09:17:09;;;;;;;0.30;0.30;;;;;;;4.86;100.00;102442.47;4943248;28;20738;-77
2022/11/30 09:19:34;;;;;;;0.20;0.20;;;;;;;4.80;100.00;102430.19;4964157;28;20041;-78
2022/11/30 09:22:00;;;;;;;0.20;0.20;;;;;;;4.89;100.00;102444.19;4966556;28;20082;-78
2022/11/30 09:24:25;;;;;;;0.30;0.30;;;;;;;5.02;100.00;102448.22;4935053;28;20469;-78
2022/11/30 09:26:54;;;;;;;0.20;0.20;;;;;;;4.97;100.00;102449.28;4950254;28;20158;-78
2022/11/30 09:29:19;;;;;;;0.20;0.20;;;;;;;4.94;100.00;102447.56;4933076;28;20034;-78
2022/11/30 09:31:44;;;;;;;0.20;0.20;;;;;;;5.05;100.00;102468.53;4950595;28;20397;-78
2022/11/30 09:34:10;;;;;;;0.20;0.20;;;;;;;5.09;100.00;102468.44;4963913;28;20045;-78
2022/11/30 09:36:36;;;;;;;0.10;0.10;;;;;;;5.03;100.00;102441.97;4946043;28;20567;-78
2022/11/30 09:39:01;;;;;;;0.20;0.20;;;;;;;5.16;100.00;102454.94;4947354;28;20030;-78
2022/11/30 09:41:32;;;;;;;0.10;0.10;;;;;;;5.28;100.00;102475.03;4924343;28;20378;-77
2022/11/30 09:44:19;;;;;;;0.20;0.20;;;;;;;5.33;100.00;102473.06;4958065;28;20114;-77
2022/11/30 09:46:56;;;;;;;0.13;0.13;;;;;;;5.43;100.00;102465.72;4961925;28;20030;-77
2022/11/30 09:49:24;;;;;;;0.10;0.10;;;;;;;5.55;100.00;102470.66;4944125;28;20460;-77
2022/11/30 09:51:53;;;;;;;0.10;0.10;;;;;;;5.60;100.00;102471.38;4947727;28;20089;-77
2022/11/30 09:54:35;;;;;;;0.10;0.10;;;;;;;5.56;100.00;102445.75;4940245;28;20125;-77
2022/11/30 09:57:23;;;;;;;0.10;0.10;;;;;;;5.70;100.00;102456.84;4924351;28;20426;-77
2022/11/30 09:59:57;;;;;;;0.20;0.20;;;;;;;5.62;100.00;102437.56;4962398;28;20034;-77
2022/11/30 10:02:27;;;;;;;0.20;0.20;;;;;;;5.74;100.00;102457.63;4959316;28;20659;-77
2022/11/30 10:04:52;;;;;;;0.10;0.10;;;;;;;5.65;100.00;102434.81;4945655;28;20663;-77
2022/11/30 10:07:58;;;;;;;0.10;0.10;;;;;;;5.79;100.00;102455.69;4962758;28;20031;-77
2022/11/30 10:10:38;;;;;;;0.10;0.10;;;;;;;5.70;100.00;102432.84;4949389;28;20030;-77
2022/11/30 10:13:22;;;;;;;0.17;0.17;;;;;;;5.93;100.00;102457.94;4947376;28;20122;-77
2022/11/30 10:16:17;;;;;;;0.20;0.20;;;;;;;5.91;100.00;102445.53;4938351;28;20039;-78
2022/11/30 10:18:51;;;;;;;0.20;0.20;;;;;;;6.03;100.00;102447.88;4946746;28;20235;-77
2022/11/30 10:21:16;;;;;;;;;;;;;;;6.07;100.00;102453.94;4950583;28;20037;-78
2022/11/30 10:24:03;;;;;;;0.15;0.15;;;;;;;6.02;100.00;102424.78;4946469;28;19914;-78
2022/11/30 10:26:34;;;;;;;0.20;0.20;;;;;;;6.29;100.00;102440.78;4960787;28;20121;-78
2022/11/30 10:29:17;;;;;;;0.10;0.10;;;;;;;6.32;100.00;102434.47;4942669;28;20030;-77
2022/11/30 10:31:44;;;;;;;0.17;0.17;;;;;;;6.32;100.00;102424.66;4940888;28;20524;-78
2022/11/30 10:34:24;;;;;;;0.20;0.20;;;;;;;6.43;100.00;102424.28;4958554;28;20039;-78
2022/11/30 10:37:00;;;;;;;0.20;0.20;;;;;;;6.47;100.00;102422.38;4941247;28;20033;-78
2022/11/30 10:39:30;;;;;;;0.20;0.20;;;;;;;6.67;100.00;102441.22;4962151;28;20500;-78
2022/11/30 10:42:04;;;;;;;0.20;0.20;;;;;;;6.84;100.00;102445.97;4935369;28;20568;-77
2022/11/30 10:44:33;;;;;;;0.20;0.20;;;;;;;6.95;100.00;102432.22;4943768;28;20077;-78
2022/11/30 10:47:04;;;;;;;0.25;0.25;;;;;;;6.98;100.00;102417.88;4939866;28;20053;-78
2022/11/30 10:49:31;;;;;;;0.20;0.20;;;;;;;7.01;100.00;102431.13;4931885;28;20593;-78
2022/11/30 10:52:01;;;;;;;0.20;0.20;;;;;;;7.11;100.00;102429.00;4931360;28;20385;-78
2022/11/30 10:54:29;;;;;;;0.17;0.17;;;;;;;7.18;100.00;102443.81;4961885;28;20161;-77
2022/11/30 10:56:54;;;;;;;0.20;0.20;;;;;;;7.29;100.00;102422.03;4942164;28;20482;-78
2022/11/30 10:59:28;;;;;;;0.20;0.20;;;;;;;7.78;100.00;102432.59;4925943;28;20067;-77
2022/11/30 11:01:53;;;;;;;0.30;0.30;;;;;;;8.20;100.00;102420.19;4929461;28;20639;-78
2022/11/30 11:04:24;;;;;;;0.30;0.30;;;;;;;9.36;100.00;102428.44;4956389;28;20178;-78
2022/11/30 11:06:51;;;;;;;0.30;0.30;;;;;;;10.86;100.00;102428.13;4926456;28;20496;-78
2022/11/30 11:09:28;;;;;;;0.38;0.38;;;;;;;12.07;100.00;102423.25;4944167;28;20031;-78
2022/11/30 11:12:17;;;;;;;0.30;0.30;;;;;;;12.77;100.00;102428.03;4962931;28;20078;-78
2022/11/30 11:14:43;;;;;;;0.20;0.20;;;;;;;13.54;100.00;102424.16;4945409;28;20511;-78
2022/11/30 11:17:17;;;;;;;0.20;0.20;;;;;;;14.21;100.00;102421.47;4959257;28;20406;-78
2022/11/30 11:19:45;;;;;;;0.10;0.10;;;;;;;14.63;100.00;102396.09;4942307;28;20121;-78
2022/11/30 11:22:27;;;;;;;0.10;0.10;;;;;;;15.24;100.00;102426.03;4937151;28;21226;-78
2022/11/30 11:24:55;;;;;;;0.10;0.10;;;;;;;15.65;100.00;102398.75;4921219;28;20022;-78
2022/11/30 11:27:28;;;;;;;0.10;0.10;;;;;;;16.13;93.88;102406.03;4932966;28;20146;-79
2022/11/30 11:30:03;;;;;;;0.10;0.10;;;;;;;16.30;93.11;102416.41;4939225;28;20477;-78